Latest Weather Observations for Point Fawcett

IDD60801

Issued at 6:01 pm CST Wednesday 10 February 2016 (issued every 30 minutes, with the page automatically refreshed every 10 minutes)

About weather observations | Map of weather stations | Latest weather observations for NT | Other Formats
Station Details ID: 200731 Name: POINT FAWCETT Lat: -11.76 Lon: 130.03 Height: 6.5 m
Data from the previous 72 hours. | See also: Recent months at Point Fawcett
Date/Time
CST
Temp
°C
App
Temp
°C
Dew
Point
Rel
Hum
%
Delta-T
°C
Wind Press
QNH
hPa
Press
MSL
hPa
Rain
since 9 am
mm
Dir
 
Spd
km/h
Gust
km/h
Spd
kts
Gust
kts
10/06:00pm 31.7 36.2 26.9 76 3.5 WNW 17 20 9 11 1005.8 1005.7 0.0
10/05:30pm 32.4 36.7 26.7 72 4.1 WNW 17 20 9 11 1005.4 - 0.0
10/05:00pm 32.2 38.1 27.9 78 3.1 W 13 17 7 9 1005.1 - 0.0
10/04:30pm 32.4 37.5 27.2 74 3.8 W 15 19 8 10 1005.0 - 0.0
10/04:00pm 33.5 38.9 27.7 71 4.2 W 15 20 8 11 1005.1 - 0.0
10/03:30pm 33.4 39.0 27.9 73 4.0 W 15 20 8 11 1005.3 - 0.0
10/03:00pm 33.4 38.6 27.4 71 4.4 WSW 15 22 8 12 1005.4 1005.3 0.0
10/02:30pm 33.2 37.7 27.0 70 4.5 W 17 22 9 12 1005.8 - 0.0
10/02:00pm 33.4 39.0 27.9 73 4.0 WSW 15 20 8 11 1006.2 - 0.0
10/01:30pm 32.9 39.0 27.6 73 3.9 W 11 19 6 10 1006.7 - 0.0
10/01:00pm 33.2 39.0 27.7 73 4.0 W 13 20 7 11 1007.1 - 0.0
10/12:30pm 32.7 38.3 27.4 73 3.9 W 13 17 7 9 1007.5 - 0.0
10/12:00pm 32.4 37.8 27.2 74 3.8 W 13 17 7 9 1007.7 - 0.0
10/11:30am 32.6 38.2 28.0 77 3.4 W 15 19 8 10 1008.0 - 0.0
10/11:00am 31.7 36.9 26.9 76 3.5 W 13 15 7 8 1008.1 - 0.0
10/10:30am 32.0 37.8 27.7 78 3.1 W 13 19 7 10 1008.1 - 0.0
10/10:00am 31.7 37.3 27.4 78 3.1 W 13 17 7 9 1008.3 - 0.0
10/09:30am 31.4 36.8 27.1 78 3.1 W 13 19 7 10 1008.5 - 0.0
10/09:00am 30.7 35.2 26.4 78 3.1 W 15 17 8 9 1008.2 1008.1 1.8
10/08:30am 30.5 35.2 27.3 83 2.3 W 17 20 9 11 1008.1 - 1.8
10/08:00am 29.9 34.0 26.9 84 2.2 W 19 22 10 12 1007.8 - 1.8
10/07:30am 29.4 33.4 26.8 86 1.9 WNW 19 22 10 12 1007.5 - 1.8
10/07:00am 29.2 33.2 26.8 87 1.7 WNW 19 24 10 13 1007.2 - 1.8
10/06:30am 29.2 33.0 26.8 87 1.7 WNW 20 26 11 14 1007.0 - 1.8
10/06:00am 29.1 33.1 26.7 87 1.7 WNW 19 24 10 13 1006.8 1006.7 1.8
10/05:30am 29.1 33.0 26.9 88 1.6 WNW 20 24 11 13 1006.3 - 1.8
10/05:00am 29.1 33.6 26.9 88 1.6 WNW 17 20 9 11 1005.9 - 1.8
10/04:30am 28.9 33.5 27.1 90 1.3 WNW 17 22 9 12 1005.8 - 1.8
10/04:00am 28.9 33.4 27.5 92 1.0 WNW 19 20 10 11 1005.9 - 1.8
10/03:30am 28.9 33.3 27.3 91 1.2 WNW 19 20 10 11 1006.1 - 1.8
10/03:00am 28.9 34.0 27.3 91 1.2 NW 15 19 8 10 1006.2 1006.1 1.8
10/02:30am 28.9 34.0 27.3 91 1.2 NW 15 17 8 9 1006.5 - 1.8
10/02:00am 28.8 33.7 27.0 90 1.3 NW 15 17 8 9 1006.8 - 1.8
10/01:30am 28.7 33.7 27.1 91 1.2 WNW 15 17 8 9 1007.1 - 1.8
10/01:00am 27.6 33.5 26.7 95 0.6 WNW 9 11 5 6 1007.6 - 1.8
10/12:30am 28.2 34.3 27.1 94 0.8 NNW 9 11 5 6 1007.8 - 1.8
10/12:00am 28.0 33.4 26.6 92 1.0 NW 11 13 6 7 1008.0 1007.9 1.8
 
Date/Time
CST
Temp
°C
App
Temp
°C
Dew
Point
Rel
Hum
%
Delta-T
°C
Wind Press
QNH
hPa
Press
MSL
hPa
Rain
since 9 am
mm
Dir
 
Spd
km/h
Gust
km/h
Spd
kts
Gust
kts
09/11:30pm 27.7 33.2 26.8 95 0.6 WNW 11 13 6 7 1008.3 - 1.8
09/11:00pm 26.8 32.8 26.1 96 0.5 SW 6 7 3 4 1008.7 - 1.8
09/10:30pm 26.8 32.6 25.8 94 0.7 SSW 6 9 3 5 1008.8 - 1.8
09/10:00pm 27.0 32.1 25.6 92 1.0 S 9 13 5 7 1009.0 - 1.8
09/09:30pm 28.3 32.9 26.5 90 1.3 SSW 15 24 8 13 1009.0 - 0.6
09/09:00pm 29.2 35.4 26.6 86 1.9 WNW 7 9 4 5 1008.8 - 0.0
09/08:30pm 29.2 35.2 26.4 85 2.0 W 7 11 4 6 1008.2 - 0.0
09/08:00pm 29.3 35.3 26.3 84 2.1 WNW 7 9 4 5 1008.0 - 0.0
09/07:30pm 29.7 35.4 26.5 83 2.3 NW 9 11 5 6 1007.7 - 0.0
09/07:00pm 30.2 35.6 26.6 81 2.6 NW 11 15 6 8 1007.5 - 0.0
09/06:30pm 30.5 35.6 26.2 78 3.1 NW 11 13 6 7 1007.4 - 0.0
09/06:00pm 31.0 36.0 26.5 77 3.2 NW 13 15 7 8 1007.1 1007.0 0.0
09/05:30pm 31.2 36.7 26.2 75 3.6 NW 9 13 5 7 1007.2 - 0.0
09/05:00pm 32.2 37.5 27.0 74 3.8 NW 13 17 7 9 1007.0 - 0.0
09/04:30pm 32.8 37.8 27.1 72 4.1 WNW 15 19 8 10 1006.8 - 0.0
09/04:00pm 32.9 37.6 27.2 72 4.1 WNW 17 20 9 11 1006.7 - 0.0
09/03:30pm 32.6 37.5 26.9 72 4.1 WNW 15 20 8 11 1006.7 - 0.0
09/03:00pm 32.6 37.8 27.4 74 3.8 WNW 15 20 8 11 1006.7 1006.6 0.0
09/02:30pm 32.4 37.6 26.9 73 4.0 WNW 13 17 7 9 1007.0 - 0.0
09/02:00pm 32.3 37.8 27.3 75 3.6 WNW 13 15 7 8 1007.4 - 0.0
09/01:30pm 32.5 38.5 27.5 75 3.6 WNW 11 13 6 7 1007.9 - 0.0
09/01:00pm 32.6 38.7 27.6 75 3.6 NW 11 15 6 8 1008.3 - 0.0
09/12:30pm 32.4 38.4 27.4 75 3.6 NW 11 15 6 8 1008.7 - 0.0
09/12:00pm 32.3 38.2 27.3 75 3.6 NW 11 15 6 8 1009.0 1008.9 0.0
09/11:30am 32.1 37.7 26.9 74 3.8 NNW 11 15 6 8 1009.1 - 0.0
09/11:00am 31.5 37.2 27.0 77 3.2 NNW 11 15 6 8 1009.3 - 0.0
09/10:30am 31.3 37.0 27.0 78 3.1 NNW 11 15 6 8 1009.5 - 0.0
09/10:00am 31.8 37.8 27.5 78 3.1 N 11 15 6 8 1009.4 - 0.0
09/09:30am 31.8 37.7 27.3 77 3.3 N 11 15 6 8 1009.3 - 0.0
09/09:00am 31.3 37.1 27.2 79 3.0 N 11 17 6 9 1009.2 - 0.0
09/08:30am 30.2 35.2 26.6 81 2.6 N 13 17 7 9 1008.9 - 0.0
09/08:00am 29.3 33.5 26.5 85 2.0 NNW 17 20 9 11 1008.6 - 0.0
09/07:30am 28.6 33.9 27.0 91 1.1 NNW 13 17 7 9 1008.6 - 0.0
09/07:00am 28.1 33.4 26.5 91 1.1 NNW 11 15 6 8 1008.2 - 0.0
09/06:30am 27.6 32.7 25.6 89 1.4 NW 9 11 5 6 1007.8 - 0.0
09/06:00am 27.9 33.0 25.5 87 1.7 NW 9 11 5 6 1007.6 1007.5 0.0
09/05:30am 28.2 33.1 25.8 87 1.7 NW 11 13 6 7 1007.3 - 0.0
09/05:00am 28.1 33.6 26.1 89 1.4 NW 9 11 5 6 1007.1 - 0.0
09/04:30am 28.0 33.1 25.6 87 1.7 NW 9 11 5 6 1007.0 - 0.0
09/04:00am 28.4 33.8 26.6 90 1.3 NW 11 13 6 7 1007.1 - 0.0
09/03:30am 28.3 33.5 26.3 89 1.4 NNW 11 13 6 7 1007.2 - 0.0
09/03:00am 28.2 33.0 26.2 89 1.4 N 13 17 7 9 1007.3 1007.2 0.0
09/02:30am 28.1 33.4 26.5 91 1.1 N 11 13 6 7 1007.4 - 0.0
09/02:00am 28.0 33.3 26.4 91 1.1 N 11 13 6 7 1007.6 - 0.0
09/01:30am 28.0 33.3 26.4 91 1.1 N 11 15 6 8 1007.8 - 0.0
09/01:00am 28.0 33.3 26.4 91 1.1 N 11 13 6 7 1008.1 - 0.0
09/12:30am 28.0 33.9 26.2 90 1.3 N 7 9 4 5 1008.3 - 0.0
09/12:00am 28.1 33.3 26.3 90 1.3 N 11 13 6 7 1008.6 1008.5 0.0
 
Date/Time
CST
Temp
°C
App
Temp
°C
Dew
Point
Rel
Hum
%
Delta-T
°C
Wind Press
QNH
hPa
Press
MSL
hPa
Rain
since 9 am
mm
Dir
 
Spd
km/h
Gust
km/h
Spd
kts
Gust
kts
08/11:30pm 28.2 33.2 26.0 88 1.6 N 11 13 6 7 1008.8 - 0.0
08/11:00pm 28.3 33.6 25.9 87 1.7 NNW 9 11 5 6 1008.9 - 0.0
08/10:30pm 28.4 34.0 25.8 86 1.8 NNW 7 11 4 6 1008.6 - 0.0
08/10:00pm 28.4 33.9 26.2 88 1.6 NNW 9 13 5 7 1008.3 - 0.0
08/09:30pm 26.9 33.3 25.5 92 1.0 NW 2 11 1 6 1008.3 - 0.0
08/09:00pm 26.9 33.0 25.1 90 1.3 NE 2 9 1 5 1008.1 1008.0 0.0
08/08:30pm 27.3 33.8 25.1 88 1.5 CALM 0 0 0 0 1007.9 - 0.0
08/08:00pm 27.6 33.9 24.8 85 2.0 CALM 0 0 0 0 1007.8 - 0.0
08/07:30pm 28.4 34.2 24.6 80 2.6 ENE 2 6 1 3 1007.5 - 0.0
08/07:00pm 28.9 33.7 25.1 80 2.7 NE 9 13 5 7 1007.5 - 0.0
08/06:30pm 29.1 33.1 25.1 79 2.8 ENE 13 20 7 11 1007.5 - 0.0
08/06:00pm 29.3 33.0 25.1 78 3.0 NE 15 22 8 12 1007.3 1007.2 0.0
08/05:30pm 28.8 31.5 24.1 76 3.3 E 17 22 9 12 1007.2 - 0.0
08/05:00pm 29.9 35.4 25.6 78 3.0 NNW 7 9 4 5 1007.0 - 0.0
08/04:30pm 29.9 35.0 25.6 78 3.0 NNW 9 11 5 6 1006.8 - 0.0
08/04:00pm 30.0 35.1 26.2 80 2.7 NW 11 13 6 7 1006.9 - 0.0
08/03:30pm 30.5 35.3 26.2 78 3.1 NW 13 17 7 9 1006.8 - 0.0
08/03:00pm 31.1 36.2 27.2 80 2.8 WNW 15 20 8 11 1006.6 1006.5 0.0
08/02:30pm 31.7 37.6 26.7 75 3.6 NW 9 13 5 7 1007.1 - 0.0
08/02:00pm 32.2 37.2 26.5 72 4.1 WNW 13 15 7 8 1007.4 - 0.0
08/01:30pm 32.3 37.7 27.1 74 3.8 WNW 13 17 7 9 1007.6 - 0.0
08/01:00pm 31.8 37.1 25.9 71 4.2 NNW 9 13 5 7 1008.2 - 0.0
08/12:30pm 31.9 37.9 26.9 75 3.6 NNW 9 11 5 6 1008.7 - 0.0
08/12:00pm 32.2 37.7 26.7 72 4.0 N 11 17 6 9 1008.8 1008.7 0.0
08/11:30am 32.8 37.9 27.3 73 4.0 N 15 20 8 11 1008.7 - 0.0
08/11:00am 32.5 38.0 27.3 74 3.8 N 13 17 7 9 1009.0 - 0.0
08/10:30am 31.9 37.3 27.1 76 3.5 N 13 17 7 9 1009.2 - 0.0
08/10:00am 31.8 37.9 27.0 76 3.5 N 9 13 5 7 1009.3 - 0.0
08/09:30am 31.1 37.4 26.8 78 3.1 N 7 9 4 5 1009.4 - 0.0
08/09:00am 30.5 36.9 26.7 80 2.7 N 6 7 3 4 1009.2 - 0.0
08/08:30am 29.3 35.0 26.5 85 2.0 NNW 9 11 5 6 1009.1 - 0.0
08/08:00am 28.8 33.9 26.2 86 1.8 NNW 11 15 6 8 1009.0 - 0.0
08/07:30am 28.4 33.9 26.2 88 1.6 NW 9 11 5 6 1008.7 - 0.0
08/07:00am 28.2 33.3 26.2 89 1.4 NW 11 13 6 7 1008.0 - 0.0
08/06:30am 28.1 33.7 26.3 90 1.3 NNW 9 13 5 7 1008.0 - 0.0
08/06:00am 28.2 33.5 26.4 90 1.3 NNW 11 13 6 7 1007.9 1007.8 0.0
08/05:30am 28.3 33.6 26.5 90 1.3 NNW 11 15 6 8 1007.8 - 0.0
08/05:00am 28.3 33.6 26.5 90 1.3 NNW 11 13 6 7 1007.5 - 0.0
08/04:30am 28.3 33.1 26.3 89 1.4 NNW 13 15 7 8 1007.5 - 0.0
08/04:00am 27.9 32.9 26.5 92 1.0 NNW 13 17 7 9 1007.5 - 0.0
08/03:30am 26.2 31.5 25.9 98 0.2 NW 9 13 5 7 1007.8 - 0.0
08/03:00am 25.5 30.8 25.0 97 0.3 NNW 6 7 3 4 1007.9 1007.8 0.0
08/02:30am 26.2 31.4 25.7 97 0.4 NNW 9 11 5 6 1008.1 - 0.0
08/02:00am 25.7 31.1 25.2 97 0.3 ENE 6 7 3 4 1008.4 - 0.0
08/01:30am 25.8 31.3 25.3 97 0.3 ENE 6 7 3 4 1008.5 - 0.0
08/01:00am 26.1 32.8 25.4 96 0.5 CALM 0 0 0 0 1008.5 - 0.0
08/12:30am 26.3 33.0 25.4 95 0.6 CALM 0 0 0 0 1008.6 - 0.0
08/12:00am 26.7 33.6 25.7 94 0.7 CALM 0 0 0 0 1008.8 1008.7 0.0
 
Date/Time
CST
Temp
°C
App
Temp
°C
Dew
Point
Rel
Hum
%
Delta-T
°C
Wind Press
QNH
hPa
Press
MSL
hPa
Rain
since 9 am
mm
Dir
 
Spd
km/h
Gust
km/h
Spd
kts
Gust
kts
07/11:30pm 27.2 33.9 26.0 93 0.8 NW 2 7 1 4 1008.9 - 0.0
07/11:00pm 27.7 35.0 26.3 92 1.0 CALM 0 6 0 3 1009.0 - 0.0
07/10:30pm 28.4 34.7 26.8 91 1.1 NNW 7 11 4 6 1009.0 - 0.0
07/10:00pm 27.5 33.9 26.1 92 1.0 ENE 4 6 2 3 1009.1 - 0.0
07/09:30pm 27.5 33.4 25.9 91 1.1 ESE 6 7 3 4 1008.9 - 0.0
07/09:00pm 27.8 33.5 25.6 88 1.6 ESE 6 6 3 3 1008.7 1008.6 0.0
07/08:30pm 28.3 35.0 25.9 87 1.7 NW 2 7 1 4 1008.5 - 0.0
07/08:00pm 29.1 36.3 26.1 84 2.1 CALM 0 0 0 0 1007.8 - 0.0
07/07:30pm 29.9 36.7 26.1 80 2.7 NW 2 6 1 3 1007.4 - 0.0
07/07:00pm 30.4 36.2 26.1 78 3.1 WNW 7 9 4 5 1007.0 - 0.0
07/06:30pm 31.2 37.0 26.0 74 3.7 NW 7 11 4 6 1006.7 - 0.0

Other Formats:

Comma delimited format used in spreadsheet applications
http://www.bom.gov.au/fwo/IDD60801/IDD60801.94122.axf

JavaScript Object Notation format (JSON) in row-major order
http://www.bom.gov.au/fwo/IDD60801/IDD60801.94122.json